sensor_id;sensor_type;location;lat;lon;timestamp;pressure;altitude;pressure_sealevel;temperature;humidity
64516;BME280;50891;37.380;-122.076;2022-08-21T00:00:19;100436.06;;;30.70;34.59
64516;BME280;50891;37.380;-122.076;2022-08-21T00:02:59;100441.81;;;30.68;34.90
64516;BME280;50891;37.380;-122.076;2022-08-21T00:05:27;100440.97;;;30.73;34.62
64516;BME280;50891;37.380;-122.076;2022-08-21T00:07:55;100442.59;;;30.74;34.86
64516;BME280;50891;37.380;-122.076;2022-08-21T00:10:21;100440.94;;;30.83;35.01
64516;BME280;50891;37.380;-122.076;2022-08-21T00:12:48;100437.72;;;30.91;34.61
64516;BME280;50891;37.380;-122.076;2022-08-21T00:15:18;100438.50;;;30.97;34.53
64516;BME280;50891;37.380;-122.076;2022-08-21T00:17:45;100443.09;;;31.01;34.82
64516;BME280;50891;37.380;-122.076;2022-08-21T00:20:13;100443.91;;;31.07;34.29
64516;BME280;50891;37.380;-122.076;2022-08-21T00:22:40;100436.84;;;31.06;34.26
64516;BME280;50891;37.380;-122.076;2022-08-21T00:25:07;100445.00;;;31.06;34.29
64516;BME280;50891;37.380;-122.076;2022-08-21T00:27:35;100442.25;;;31.11;34.29
64516;BME280;50891;37.380;-122.076;2022-08-21T00:30:02;100444.16;;;31.16;34.22
64516;BME280;50891;37.380;-122.076;2022-08-21T00:32:29;100440.34;;;31.17;34.22
64516;BME280;50891;37.380;-122.076;2022-08-21T00:34:55;100432.47;;;31.15;34.07
64516;BME280;50891;37.380;-122.076;2022-08-21T00:37:21;100435.44;;;31.19;34.20
64516;BME280;50891;37.380;-122.076;2022-08-21T00:39:48;100435.72;;;31.17;34.21
64516;BME280;50891;37.380;-122.076;2022-08-21T00:42:14;100433.53;;;31.14;34.20
64516;BME280;50891;37.380;-122.076;2022-08-21T00:44:46;100435.47;;;31.08;33.89
64516;BME280;50891;37.380;-122.076;2022-08-21T00:47:12;100437.66;;;31.06;33.96
64516;BME280;50891;37.380;-122.076;2022-08-21T00:49:39;100436.06;;;31.00;33.46
64516;BME280;50891;37.380;-122.076;2022-08-21T00:52:10;100441.50;;;30.90;33.50
64516;BME280;50891;37.380;-122.076;2022-08-21T00:54:36;100446.38;;;30.88;33.51
64516;BME280;50891;37.380;-122.076;2022-08-21T00:57:13;100449.09;;;30.83;33.38
64516;BME280;50891;37.380;-122.076;2022-08-21T00:59:40;100457.00;;;30.90;33.43
64516;BME280;50891;37.380;-122.076;2022-08-21T01:02:10;100450.47;;;30.91;33.45
64516;BME280;50891;37.380;-122.076;2022-08-21T01:04:37;100457.00;;;30.90;33.82
64516;BME280;50891;37.380;-122.076;2022-08-21T01:07:04;100454.53;;;30.88;33.82
64516;BME280;50891;37.380;-122.076;2022-08-21T01:09:31;100461.06;;;30.72;34.25
64516;BME280;50891;37.380;-122.076;2022-08-21T01:11:57;100464.31;;;30.74;34.45
64516;BME280;50891;37.380;-122.076;2022-08-21T01:14:24;100462.66;;;30.83;34.65
64516;BME280;50891;37.380;-122.076;2022-08-21T01:16:52;100459.16;;;30.87;34.63
64516;BME280;50891;37.380;-122.076;2022-08-21T01:19:21;100472.47;;;30.89;34.98
64516;BME280;50891;37.380;-122.076;2022-08-21T01:21:48;100474.34;;;30.88;35.03
64516;BME280;50891;37.380;-122.076;2022-08-21T01:24:15;100464.84;;;30.81;34.66
64516;BME280;50891;37.380;-122.076;2022-08-21T01:26:42;100472.19;;;30.85;34.83
64516;BME280;50891;37.380;-122.076;2022-08-21T01:29:11;100464.84;;;30.86;35.21
64516;BME280;50891;37.380;-122.076;2022-08-21T01:31:40;100460.50;;;30.95;35.43
64516;BME280;50891;37.380;-122.076;2022-08-21T01:34:07;100464.03;;;31.01;35.49
64516;BME280;50891;37.380;-122.076;2022-08-21T01:36:34;100471.88;;;31.02;35.68
64516;BME280;50891;37.380;-122.076;2022-08-21T01:39:01;100466.44;;;31.02;34.73
64516;BME280;50891;37.380;-122.076;2022-08-21T01:41:27;100467.53;;;31.06;34.63
64516;BME280;50891;37.380;-122.076;2022-08-21T01:43:53;100468.63;;;31.11;34.35
64516;BME280;50891;37.380;-122.076;2022-08-21T01:46:19;100469.69;;;31.15;34.29
64516;BME280;50891;37.380;-122.076;2022-08-21T01:48:46;100472.94;;;31.12;34.33
64516;BME280;50891;37.380;-122.076;2022-08-21T01:51:12;100478.38;;;31.12;34.15
64516;BME280;50891;37.380;-122.076;2022-08-21T01:53:38;100473.50;;;31.14;34.21
64516;BME280;50891;37.380;-122.076;2022-08-21T01:56:10;100480.28;;;31.16;34.40
64516;BME280;50891;37.380;-122.076;2022-08-21T01:58:37;100474.84;;;31.11;34.36
64516;BME280;50891;37.380;-122.076;2022-08-21T02:01:04;100483.28;;;31.09;34.21
64516;BME280;50891;37.380;-122.076;2022-08-21T02:03:30;100480.59;;;30.94;34.79
64516;BME280;50891;37.380;-122.076;2022-08-21T02:05:56;100487.41;;;30.92;34.74
64516;BME280;50891;37.380;-122.076;2022-08-21T02:08:23;100475.97;;;30.79;34.85
64516;BME280;50891;37.380;-122.076;2022-08-21T02:10:51;100482.53;;;30.68;35.11
64516;BME280;50891;37.380;-122.076;2022-08-21T02:13:18;100477.91;;;30.69;35.14
64516;BME280;50891;37.380;-122.076;2022-08-21T02:15:44;100482.25;;;30.64;34.91
64516;BME280;50891;37.380;-122.076;2022-08-21T02:18:11;100492.81;;;30.51;35.02
64516;BME280;50891;37.380;-122.076;2022-08-21T02:20:40;100494.72;;;30.55;35.35
64516;BME280;50891;37.380;-122.076;2022-08-21T02:23:09;100495.00;;;30.59;35.23
64516;BME280;50891;37.380;-122.076;2022-08-21T02:25:36;100492.00;;;30.60;35.34
64516;BME280;50891;37.380;-122.076;2022-08-21T02:28:05;100496.06;;;30.63;35.22
64516;BME280;50891;37.380;-122.076;2022-08-21T02:30:36;100499.59;;;30.58;35.26
64516;BME280;50891;37.380;-122.076;2022-08-21T02:33:04;100501.81;;;30.56;35.50
64516;BME280;50891;37.380;-122.076;2022-08-21T02:35:31;100508.84;;;30.47;35.61
64516;BME280;50891;37.380;-122.076;2022-08-21T02:38:04;100501.25;;;30.39;35.83
64516;BME280;50891;37.380;-122.076;2022-08-21T02:40:33;100514.00;;;30.33;35.77
64516;BME280;50891;37.380;-122.076;2022-08-21T02:43:01;100518.56;;;30.22;35.99
64516;BME280;50891;37.380;-122.076;2022-08-21T02:45:28;100515.03;;;30.22;36.09
64516;BME280;50891;37.380;-122.076;2022-08-21T02:48:04;100516.94;;;30.21;36.31
64516;BME280;50891;37.380;-122.076;2022-08-21T02:50:41;100520.16;;;30.13;36.57
64516;BME280;50891;37.380;-122.076;2022-08-21T02:53:09;100517.44;;;30.13;36.35
64516;BME280;50891;37.380;-122.076;2022-08-21T02:55:37;100515.84;;;30.07;36.31
64516;BME280;50891;37.380;-122.076;2022-08-21T02:58:06;100520.41;;;30.01;36.26
64516;BME280;50891;37.380;-122.076;2022-08-21T03:00:36;100521.78;;;30.04;36.28
64516;BME280;50891;37.380;-122.076;2022-08-21T03:03:03;100529.09;;;30.09;36.17
64516;BME280;50891;37.380;-122.076;2022-08-21T03:05:31;100532.66;;;30.14;36.32
64516;BME280;50891;37.380;-122.076;2022-08-21T03:07:59;100526.69;;;30.17;36.04
64516;BME280;50891;37.380;-122.076;2022-08-21T03:10:27;100539.16;;;30.18;36.29
64516;BME280;50891;37.380;-122.076;2022-08-21T03:12:54;100534.84;;;30.17;36.13
64516;BME280;50891;37.380;-122.076;2022-08-21T03:15:21;100538.09;;;30.14;36.12
64516;BME280;50891;37.380;-122.076;2022-08-21T03:17:50;100541.59;;;30.15;35.85
64516;BME280;50891;37.380;-122.076;2022-08-21T03:20:19;100546.22;;;30.14;35.81
64516;BME280;50891;37.380;-122.076;2022-08-21T03:22:47;100548.91;;;30.09;35.87
64516;BME280;50891;37.380;-122.076;2022-08-21T03:25:14;100553.25;;;30.10;35.91
64516;BME280;50891;37.380;-122.076;2022-08-21T03:27:40;100551.63;;;30.09;35.84
64516;BME280;50891;37.380;-122.076;2022-08-21T03:30:07;100554.63;;;30.08;35.79
64516;BME280;50891;37.380;-122.076;2022-08-21T03:32:34;100564.91;;;30.06;35.64
64516;BME280;50891;37.380;-122.076;2022-08-21T03:35:04;100561.91;;;30.02;35.92
64516;BME280;50891;37.380;-122.076;2022-08-21T03:37:31;100565.69;;;29.96;36.13
64516;BME280;50891;37.380;-122.076;2022-08-21T03:39:57;100570.84;;;29.97;36.08
64516;BME280;50891;37.380;-122.076;2022-08-21T03:42:24;100570.00;;;29.92;36.23
64516;BME280;50891;37.380;-122.076;2022-08-21T03:44:50;100585.19;;;29.88;36.57
64516;BME280;50891;37.380;-122.076;2022-08-21T03:47:17;100594.38;;;29.81;36.44
64516;BME280;50891;37.380;-122.076;2022-08-21T03:49:43;100594.91;;;29.78;36.61
64516;BME280;50891;37.380;-122.076;2022-08-21T03:52:09;100600.59;;;29.77;36.43
64516;BME280;50891;37.380;-122.076;2022-08-21T03:54:36;100607.09;;;29.76;36.72
64516;BME280;50891;37.380;-122.076;2022-08-21T03:57:02;100609.25;;;29.74;36.44
64516;BME280;50891;37.380;-122.076;2022-08-21T03:59:28;100607.34;;;29.74;36.65
64516;BME280;50891;37.380;-122.076;2022-08-21T04:02:04;100604.38;;;29.76;36.62
64516;BME280;50891;37.380;-122.076;2022-08-21T04:04:31;100607.38;;;29.79;36.45
64516;BME280;50891;37.380;-122.076;2022-08-21T04:06:57;100616.06;;;29.81;36.41
64516;BME280;50891;37.380;-122.076;2022-08-21T04:09:25;100613.38;;;29.81;36.63
64516;BME280;50891;37.380;-122.076;2022-08-21T04:11:51;100616.59;;;29.83;36.63
64516;BME280;50891;37.380;-122.076;2022-08-21T04:14:18;100619.63;;;29.87;36.39
64516;BME280;50891;37.380;-122.076;2022-08-21T04:16:44;100619.88;;;29.91;36.29
64516;BME280;50891;37.380;-122.076;2022-08-21T04:19:12;100623.16;;;29.93;36.25
64516;BME280;50891;37.380;-122.076;2022-08-21T04:21:41;100627.22;;;29.95;36.44
64516;BME280;50891;37.380;-122.076;2022-08-21T04:24:09;100637.81;;;29.97;36.33
64516;BME280;50891;37.380;-122.076;2022-08-21T04:26:37;100637.28;;;30.00;36.31
64516;BME280;50891;37.380;-122.076;2022-08-21T04:29:04;100643.00;;;29.98;36.64
64516;BME280;50891;37.380;-122.076;2022-08-21T04:31:33;100639.16;;;29.94;36.32
64516;BME280;50891;37.380;-122.076;2022-08-21T04:34:00;100644.03;;;29.92;36.31
64516;BME280;50891;37.380;-122.076;2022-08-21T04:36:26;100642.13;;;29.93;36.58
64516;BME280;50891;37.380;-122.076;2022-08-21T04:38:52;100645.94;;;29.92;36.56
64516;BME280;50891;37.380;-122.076;2022-08-21T04:41:18;100653.25;;;29.86;36.58
64516;BME280;50891;37.380;-122.076;2022-08-21T04:43:45;100659.19;;;29.83;36.59
64516;BME280;50891;37.380;-122.076;2022-08-21T04:46:11;100665.94;;;29.80;36.66
64516;BME280;50891;37.380;-122.076;2022-08-21T04:48:37;100667.03;;;29.79;36.54
64516;BME280;50891;37.380;-122.076;2022-08-21T04:51:14;100674.63;;;29.77;36.74
64516;BME280;50891;37.380;-122.076;2022-08-21T04:53:55;100675.44;;;29.78;36.70
64516;BME280;50891;37.380;-122.076;2022-08-21T04:56:33;100668.88;;;29.74;36.57
64516;BME280;50891;37.380;-122.076;2022-08-21T04:59:04;100676.19;;;29.68;36.88
64516;BME280;50891;37.380;-122.076;2022-08-21T05:01:34;100670.69;;;29.63;36.92
64516;BME280;50891;37.380;-122.076;2022-08-21T05:04:04;100681.78;;;29.61;37.20
64516;BME280;50891;37.380;-122.076;2022-08-21T05:06:35;100680.97;;;29.61;37.12
64516;BME280;50891;37.380;-122.076;2022-08-21T05:09:03;100683.94;;;29.59;37.00
64516;BME280;50891;37.380;-122.076;2022-08-21T05:11:31;100686.91;;;29.58;37.06
64516;BME280;50891;37.380;-122.076;2022-08-21T05:13:58;100685.81;;;29.54;37.27
64516;BME280;50891;37.380;-122.076;2022-08-21T05:16:24;100687.97;;;29.52;37.20
64516;BME280;50891;37.380;-122.076;2022-08-21T05:18:50;100694.72;;;29.49;37.24
64516;BME280;50891;37.380;-122.076;2022-08-21T05:21:17;100700.63;;;29.46;37.59
64516;BME280;50891;37.380;-122.076;2022-08-21T05:23:43;100700.59;;;29.41;37.70
64516;BME280;50891;37.380;-122.076;2022-08-21T05:26:09;100697.50;;;29.27;37.66
64516;BME280;50891;37.380;-122.076;2022-08-21T05:28:35;100705.03;;;29.20;38.04
64516;BME280;50891;37.380;-122.076;2022-08-21T05:31:01;100700.38;;;29.15;38.00
64516;BME280;50891;37.380;-122.076;2022-08-21T05:33:28;100706.34;;;29.12;38.30
64516;BME280;50891;37.380;-122.076;2022-08-21T05:35:55;100709.28;;;29.11;38.36
64516;BME280;50891;37.380;-122.076;2022-08-21T05:38:24;100708.72;;;29.09;38.46
64516;BME280;50891;37.380;-122.076;2022-08-21T05:40:53;100718.75;;;29.08;38.14
64516;BME280;50891;37.380;-122.076;2022-08-21T05:43:20;100715.34;;;28.96;38.38
64516;BME280;50891;37.380;-122.076;2022-08-21T05:45:46;100717.94;;;28.86;38.52
64516;BME280;50891;37.380;-122.076;2022-08-21T05:48:16;100726.81;;;28.81;38.51
64516;BME280;50891;37.380;-122.076;2022-08-21T05:50:43;100720.31;;;28.77;38.35
64516;BME280;50891;37.380;-122.076;2022-08-21T05:53:10;100724.53;;;28.68;38.65
64516;BME280;50891;37.380;-122.076;2022-08-21T05:55:38;100724.97;;;28.60;38.73
64516;BME280;50891;37.380;-122.076;2022-08-21T05:58:04;100729.75;;;28.52;38.70
64516;BME280;50891;37.380;-122.076;2022-08-21T06:00:30;100735.69;;;28.49;38.71
64516;BME280;50891;37.380;-122.076;2022-08-21T06:02:57;100732.03;;;28.44;39.02
64516;BME280;50891;37.380;-122.076;2022-08-21T06:05:24;100727.94;;;28.41;39.09
64516;BME280;50891;37.380;-122.076;2022-08-21T06:07:50;100728.22;;;28.40;38.97
64516;BME280;50891;37.380;-122.076;2022-08-21T06:10:17;100732.78;;;28.39;39.04
64516;BME280;50891;37.380;-122.076;2022-08-21T06:12:43;100733.88;;;28.38;38.94
64516;BME280;50891;37.380;-122.076;2022-08-21T06:15:09;100736.34;;;28.40;39.09
64516;BME280;50891;37.380;-122.076;2022-08-21T06:17:36;100738.78;;;28.41;39.07
64516;BME280;50891;37.380;-122.076;2022-08-21T06:20:03;100741.81;;;28.45;39.02
64516;BME280;50891;37.380;-122.076;2022-08-21T06:22:30;100748.03;;;28.45;39.36
64516;BME280;50891;37.380;-122.076;2022-08-21T06:24:56;100743.13;;;28.42;39.71
64516;BME280;50891;37.380;-122.076;2022-08-21T06:27:23;100744.50;;;28.45;39.67
64516;BME280;50891;37.380;-122.076;2022-08-21T06:29:49;100749.94;;;28.45;39.77
64516;BME280;50891;37.380;-122.076;2022-08-21T06:32:15;100747.81;;;28.47;39.93
64516;BME280;50891;37.380;-122.076;2022-08-21T06:34:41;100752.44;;;28.46;40.13
64516;BME280;50891;37.380;-122.076;2022-08-21T06:37:08;100757.84;;;28.46;40.12
64516;BME280;50891;37.380;-122.076;2022-08-21T06:39:34;100758.84;;;28.45;40.89
64516;BME280;50891;37.380;-122.076;2022-08-21T06:42:01;100758.38;;;28.48;41.63
64516;BME280;50891;37.380;-122.076;2022-08-21T06:44:27;100756.81;;;28.52;42.35
64516;BME280;50891;37.380;-122.076;2022-08-21T06:46:53;100766.31;;;28.55;42.34
64516;BME280;50891;37.380;-122.076;2022-08-21T06:49:19;100761.72;;;28.55;41.90
64516;BME280;50891;37.380;-122.076;2022-08-21T06:51:46;100769.59;;;28.57;41.99
64516;BME280;50891;37.380;-122.076;2022-08-21T06:54:12;100766.06;;;28.56;41.97
64516;BME280;50891;37.380;-122.076;2022-08-21T06:56:38;100769.59;;;28.57;42.21
64516;BME280;50891;37.380;-122.076;2022-08-21T06:59:05;100772.88;;;28.59;42.39
64516;BME280;50891;37.380;-122.076;2022-08-21T07:01:32;100769.06;;;28.60;42.07
64516;BME280;50891;37.380;-122.076;2022-08-21T07:03:58;100780.47;;;28.62;42.05
64516;BME280;50891;37.380;-122.076;2022-08-21T07:06:25;100776.94;;;28.62;42.13
64516;BME280;50891;37.380;-122.076;2022-08-21T07:08:51;100778.59;;;28.63;42.09
64516;BME280;50891;37.380;-122.076;2022-08-21T07:11:20;100784.84;;;28.63;41.98
64516;BME280;50891;37.380;-122.076;2022-08-21T07:13:47;100774.00;;;28.63;41.80
64516;BME280;50891;37.380;-122.076;2022-08-21T07:16:14;100782.69;;;28.65;41.76
64516;BME280;50891;37.380;-122.076;2022-08-21T07:18:40;100778.09;;;28.66;41.50
64516;BME280;50891;37.380;-122.076;2022-08-21T07:21:07;100785.97;;;28.67;41.44
64516;BME280;50891;37.380;-122.076;2022-08-21T07:23:38;100787.59;;;28.68;41.56
64516;BME280;50891;37.380;-122.076;2022-08-21T07:26:05;100790.53;;;28.67;41.54
64516;BME280;50891;37.380;-122.076;2022-08-21T07:28:32;100798.66;;;28.67;41.33
64516;BME280;50891;37.380;-122.076;2022-08-21T07:31:00;100799.75;;;28.66;41.50
64516;BME280;50891;37.380;-122.076;2022-08-21T07:33:29;100784.84;;;28.63;41.27
64516;BME280;50891;37.380;-122.076;2022-08-21T07:35:56;100788.28;;;28.58;41.48
64516;BME280;50891;37.380;-122.076;2022-08-21T07:38:22;100801.25;;;28.56;41.29
64516;BME280;50891;37.380;-122.076;2022-08-21T07:40:51;100799.06;;;28.53;41.33
64516;BME280;50891;37.380;-122.076;2022-08-21T07:43:18;100798.72;;;28.50;41.21
64516;BME280;50891;37.380;-122.076;2022-08-21T07:45:45;100803.84;;;28.46;41.18
64516;BME280;50891;37.380;-122.076;2022-08-21T07:48:11;100804.84;;;28.45;40.96
64516;BME280;50891;37.380;-122.076;2022-08-21T07:50:38;100806.69;;;28.40;41.18
64516;BME280;50891;37.380;-122.076;2022-08-21T07:53:05;100800.13;;;28.35;41.32
64516;BME280;50891;37.380;-122.076;2022-08-21T07:55:33;100801.44;;;28.33;41.48
64516;BME280;50891;37.380;-122.076;2022-08-21T07:57:59;100804.38;;;28.31;41.25
64516;BME280;50891;37.380;-122.076;2022-08-21T08:00:27;100801.91;;;28.30;41.16
64516;BME280;50891;37.380;-122.076;2022-08-21T08:02:55;100801.84;;;28.25;41.05
64516;BME280;50891;37.380;-122.076;2022-08-21T08:05:25;100805.06;;;28.22;41.32
64516;BME280;50891;37.380;-122.076;2022-08-21T08:07:52;100808.28;;;28.19;41.20
64516;BME280;50891;37.380;-122.076;2022-08-21T08:10:19;100799.81;;;28.15;41.18
64516;BME280;50891;37.380;-122.076;2022-08-21T08:12:46;100808.75;;;28.15;41.20
64516;BME280;50891;37.380;-122.076;2022-08-21T08:15:16;100799.53;;;28.11;41.15
64516;BME280;50891;37.380;-122.076;2022-08-21T08:17:42;100797.06;;;28.10;40.88
64516;BME280;50891;37.380;-122.076;2022-08-21T08:20:11;100800.50;;;28.05;41.03
64516;BME280;50891;37.380;-122.076;2022-08-21T08:22:38;100799.34;;;28.01;40.80
64516;BME280;50891;37.380;-122.076;2022-08-21T08:25:07;100791.50;;;28.00;40.46
64516;BME280;50891;37.380;-122.076;2022-08-21T08:27:34;100793.63;;;27.98;40.74
64516;BME280;50891;37.380;-122.076;2022-08-21T08:30:00;100794.09;;;27.94;40.71
64516;BME280;50891;37.380;-122.076;2022-08-21T08:32:27;100791.91;;;27.91;40.49
64516;BME280;50891;37.380;-122.076;2022-08-21T08:34:53;100790.50;;;27.89;40.31
64516;BME280;50891;37.380;-122.076;2022-08-21T08:37:20;100790.16;;;27.85;40.52
64516;BME280;50891;37.380;-122.076;2022-08-21T08:39:47;100784.44;;;27.82;40.54
64516;BME280;50891;37.380;-122.076;2022-08-21T08:42:32;100789.03;;;27.81;40.49
64516;BME280;50891;37.380;-122.076;2022-08-21T08:45:08;100790.34;;;27.79;40.57
64516;BME280;50891;37.380;-122.076;2022-08-21T08:47:42;100791.06;;;27.74;40.36
64516;BME280;50891;37.380;-122.076;2022-08-21T08:50:24;100790.50;;;27.72;40.50
64516;BME280;50891;37.380;-122.076;2022-08-21T08:52:59;100796.63;;;27.67;40.23
64516;BME280;50891;37.380;-122.076;2022-08-21T08:58:00;100805.69;;;27.61;40.25
64516;BME280;50891;37.380;-122.076;2022-08-21T09:00:29;100797.03;;;27.59;40.34
64516;BME280;50891;37.380;-122.076;2022-08-21T09:02:58;100795.31;;;27.53;40.45
64516;BME280;50891;37.380;-122.076;2022-08-21T09:05:26;100799.28;;;27.50;40.32
64516;BME280;50891;37.380;-122.076;2022-08-21T09:08:06;100802.25;;;27.49;40.31
64516;BME280;50891;37.380;-122.076;2022-08-21T09:13:42;100814.03;;;27.43;40.37
64516;BME280;50891;37.380;-122.076;2022-08-21T09:16:38;100807.47;;;27.39;40.36
64516;BME280;50891;37.380;-122.076;2022-08-21T09:19:24;100814.16;;;27.36;40.27
64516;BME280;50891;37.380;-122.076;2022-08-21T09:27:13;100814.00;;;27.26;40.40
64516;BME280;50891;37.380;-122.076;2022-08-21T09:29:43;100820.13;;;27.21;40.48
64516;BME280;50891;37.380;-122.076;2022-08-21T09:32:23;100818.69;;;27.19;40.28
64516;BME280;50891;37.380;-122.076;2022-08-21T09:37:31;100824.00;;;27.14;40.72
64516;BME280;50891;37.380;-122.076;2022-08-21T09:39:58;100815.53;;;27.10;40.50
64516;BME280;50891;37.380;-122.076;2022-08-21T09:42:28;100813.56;;;27.05;40.30
64516;BME280;50891;37.380;-122.076;2022-08-21T09:45:14;100821.34;;;27.02;40.44
64516;BME280;50891;37.380;-122.076;2022-08-21T09:47:41;100815.00;;;26.96;40.44
64516;BME280;50891;37.380;-122.076;2022-08-21T09:52:43;100806.22;;;26.89;40.33
64516;BME280;50891;37.380;-122.076;2022-08-21T09:55:18;100796.16;;;26.84;40.50
64516;BME280;50891;37.380;-122.076;2022-08-21T09:58:05;100804.13;;;26.79;40.60
64516;BME280;50891;37.380;-122.076;2022-08-21T10:00:34;100813.75;;;26.75;40.86
64516;BME280;50891;37.380;-122.076;2022-08-21T10:03:27;100810.97;;;26.70;40.81
64516;BME280;50891;37.380;-122.076;2022-08-21T10:08:24;100827.63;;;26.67;40.97
64516;BME280;50891;37.380;-122.076;2022-08-21T10:11:07;100821.66;;;26.65;40.93
64516;BME280;50891;37.380;-122.076;2022-08-21T10:13:38;100828.94;;;26.64;40.77
64516;BME280;50891;37.380;-122.076;2022-08-21T10:22:38;100839.84;;;26.58;40.85
64516;BME280;50891;37.380;-122.076;2022-08-21T10:25:11;100840.88;;;26.57;40.83
64516;BME280;50891;37.380;-122.076;2022-08-21T10:27:55;100853.56;;;26.56;40.84
64516;BME280;50891;37.380;-122.076;2022-08-21T10:38:57;100845.56;;;26.49;40.70
64516;BME280;50891;37.380;-122.076;2022-08-21T10:44:23;100838.75;;;26.47;40.72
64516;BME280;50891;37.380;-122.076;2022-08-21T10:47:06;100842.16;;;26.42;40.72
64516;BME280;50891;37.380;-122.076;2022-08-21T10:55:55;100850.38;;;26.36;40.88
64516;BME280;50891;37.380;-122.076;2022-08-21T11:00:49;100859.03;;;26.38;40.60
64516;BME280;50891;37.380;-122.076;2022-08-21T11:03:33;100860.94;;;26.37;40.75
64516;BME280;50891;37.380;-122.076;2022-08-21T11:08:43;100859.84;;;26.38;40.73
64516;BME280;50891;37.380;-122.076;2022-08-21T11:11:31;100865.25;;;26.38;40.55
64516;BME280;50891;37.380;-122.076;2022-08-21T11:14:21;100872.31;;;26.39;40.85
64516;BME280;50891;37.380;-122.076;2022-08-21T11:16:54;100864.22;;;26.39;40.79
64516;BME280;50891;37.380;-122.076;2022-08-21T11:22:06;100863.41;;;26.39;40.75
64516;BME280;50891;37.380;-122.076;2022-08-21T11:25:14;100860.34;;;26.35;40.84
64516;BME280;50891;37.380;-122.076;2022-08-21T11:27:58;100863.03;;;26.35;40.90
64516;BME280;50891;37.380;-122.076;2022-08-21T11:30:57;100864.09;;;26.34;40.95
64516;BME280;50891;37.380;-122.076;2022-08-21T11:33:50;100872.63;;;26.31;40.96
64516;BME280;50891;37.380;-122.076;2022-08-21T11:41:38;100856.94;;;26.28;41.29
64516;BME280;50891;37.380;-122.076;2022-08-21T11:55:01;100885.66;;;26.22;41.33
64516;BME280;50891;37.380;-122.076;2022-08-21T11:57:51;100885.28;;;26.19;41.51
64516;BME280;50891;37.380;-122.076;2022-08-21T12:03:13;100888.69;;;26.14;41.67
64516;BME280;50891;37.380;-122.076;2022-08-21T12:05:45;100897.00;;;26.13;41.83
64516;BME280;50891;37.380;-122.076;2022-08-21T12:08:35;100900.16;;;26.10;41.76
64516;BME280;50891;37.380;-122.076;2022-08-21T12:13:53;100903.94;;;26.09;42.03
64516;BME280;50891;37.380;-122.076;2022-08-21T12:16:37;100908.25;;;26.10;41.97
64516;BME280;50891;37.380;-122.076;2022-08-21T12:19:06;100921.72;;;26.10;42.00
64516;BME280;50891;37.380;-122.076;2022-08-21T12:21:34;100919.03;;;26.10;41.99
64516;BME280;50891;37.380;-122.076;2022-08-21T12:26:59;100915.75;;;26.07;42.05
64516;BME280;50891;37.380;-122.076;2022-08-21T12:29:29;100923.84;;;26.07;42.13
64516;BME280;50891;37.380;-122.076;2022-08-21T12:34:54;100931.31;;;26.05;42.07
64516;BME280;50891;37.380;-122.076;2022-08-21T12:37:43;100926.63;;;26.01;42.00
64516;BME280;50891;37.380;-122.076;2022-08-21T12:42:50;100938.94;;;25.97;42.34
64516;BME280;50891;37.380;-122.076;2022-08-21T12:45:30;100939.16;;;25.95;42.38
64516;BME280;50891;37.380;-122.076;2022-08-21T12:48:06;100944.19;;;25.92;42.27
64516;BME280;50891;37.380;-122.076;2022-08-21T12:50:44;100943.34;;;25.91;42.33
64516;BME280;50891;37.380;-122.076;2022-08-21T12:55:55;100954.59;;;25.88;42.65
64516;BME280;50891;37.380;-122.076;2022-08-21T12:58:27;100954.59;;;25.88;42.68
64516;BME280;50891;37.380;-122.076;2022-08-21T13:00:58;100951.91;;;25.88;42.68
64516;BME280;50891;37.380;-122.076;2022-08-21T13:03:26;100958.34;;;25.87;42.82
64516;BME280;50891;37.380;-122.076;2022-08-21T13:05:53;100961.25;;;25.85;42.79
64516;BME280;50891;37.380;-122.076;2022-08-21T13:08:21;100964.16;;;25.84;42.71
64516;BME280;50891;37.380;-122.076;2022-08-21T13:10:57;100968.72;;;25.83;42.71
64516;BME280;50891;37.380;-122.076;2022-08-21T13:13:26;100968.72;;;25.83;42.79
64516;BME280;50891;37.380;-122.076;2022-08-21T13:15:58;100974.94;;;25.84;42.78
64516;BME280;50891;37.380;-122.076;2022-08-21T13:18:28;100974.13;;;25.83;42.73
64516;BME280;50891;37.380;-122.076;2022-08-21T13:21:12;100977.84;;;25.82;42.79
64516;BME280;50891;37.380;-122.076;2022-08-21T13:23:40;100992.38;;;25.81;42.86
64516;BME280;50891;37.380;-122.076;2022-08-21T13:26:20;100984.78;;;25.78;42.88
64516;BME280;50891;37.380;-122.076;2022-08-21T13:28:49;100986.63;;;25.78;42.90
64516;BME280;50891;37.380;-122.076;2022-08-21T13:31:20;100990.38;;;25.77;42.81
64516;BME280;50891;37.380;-122.076;2022-08-21T13:33:48;100998.47;;;25.77;42.93
64516;BME280;50891;37.380;-122.076;2022-08-21T13:36:20;100995.38;;;25.73;42.89
64516;BME280;50891;37.380;-122.076;2022-08-21T13:38:50;100999.94;;;25.73;42.90
64516;BME280;50891;37.380;-122.076;2022-08-21T13:41:28;101002.03;;;25.71;42.92
64516;BME280;50891;37.380;-122.076;2022-08-21T13:44:02;101005.81;;;25.70;42.90
64516;BME280;50891;37.380;-122.076;2022-08-21T13:46:32;101004.13;;;25.69;42.95
64516;BME280;50891;37.380;-122.076;2022-08-21T13:49:00;101019.94;;;25.65;42.97
64516;BME280;50891;37.380;-122.076;2022-08-21T13:51:29;101021.22;;;25.62;42.92
64516;BME280;50891;37.380;-122.076;2022-08-21T13:53:57;101026.22;;;25.59;42.70
64516;BME280;50891;37.380;-122.076;2022-08-21T13:56:32;101025.88;;;25.55;42.57